Time;durP1;ratioP1;P1;durP2;ratioP2;P2;SDS_P1;SDS_P2;PMS_P1;PMS_P2;Temp;Humidity;BMP_temperature;BMP_pressure;BME280_temperature;BME280_humidity;BME280_pressure;Samples;Min_cycle;Max_cycle;Signal;HPM_P1;HPM_P2
2021/06/27 00:01:29;;;;;;;26.92;21.25;;;17.20;78.70;;;;;;4975336;28;20225;-87
2021/06/27 00:03:56;;;;;;;25.02;19.98;;;17.20;78.60;;;;;;4992997;28;20171;-87
2021/06/27 00:06:22;;;;;;;24.98;21.95;;;17.20;78.60;;;;;;4975315;28;20257;-87
2021/06/27 00:08:48;;;;;;;23.23;19.92;;;17.10;78.60;;;;;;4992702;28;20174;-87
2021/06/27 00:11:15;;;;;;;26.45;21.65;;;17.00;78.60;;;;;;4974995;28;20654;-87
2021/06/27 00:13:43;;;;;;;31.15;22.15;;;17.00;78.70;;;;;;4992643;28;20653;-87
2021/06/27 00:16:09;;;;;;;26.05;21.77;;;17.00;78.80;;;;;;4992377;28;20197;-87
2021/06/27 00:18:35;;;;;;;28.30;20.83;;;17.00;78.90;;;;;;4992533;28;20710;-87
2021/06/27 00:21:07;;;;;;;23.77;20.25;;;16.90;78.90;;;;;;4975003;28;20186;-87
2021/06/27 00:23:37;;;;;;;27.48;21.52;;;16.90;78.80;;;;;;4992452;28;20630;-87
2021/06/27 00:26:04;;;;;;;29.05;20.80;;;16.80;78.80;;;;;;4974917;28;20198;-88
2021/06/27 00:28:30;;;;;;;33.35;23.27;;;16.80;79.50;;;;;;4974977;28;20174;-87
2021/06/27 00:30:57;;;;;;;25.50;22.13;;;16.80;79.70;;;;;;4992269;28;20174;-87
2021/06/27 00:33:23;;;;;;;29.98;21.25;;;16.70;79.60;;;;;;4992243;28;20666;-87
2021/06/27 00:35:50;;;;;;;25.02;20.25;;;16.70;80.00;;;;;;4992526;28;20174;-87
2021/06/27 00:38:16;;;;;;;26.70;20.73;;;16.70;79.80;;;;;;4992281;28;20704;-87
2021/06/27 00:40:42;;;;;;;24.35;19.83;;;16.70;79.70;;;;;;4975254;28;20182;-88
2021/06/27 00:43:08;;;;;;;26.88;22.13;;;16.70;80.10;;;;;;4992162;28;20700;-87
2021/06/27 00:45:35;;;;;;;24.73;19.30;;;16.60;80.80;;;;;;4974690;28;20749;-87
2021/06/27 00:48:02;;;;;;;24.45;19.75;;;16.60;80.80;;;;;;4974668;28;20261;-87
2021/06/27 00:50:33;;;;;;;27.95;20.38;;;16.60;80.70;;;;;;4974682;28;20177;-88
2021/06/27 00:52:59;;;;;;;31.42;19.92;;;16.50;80.50;;;;;;4992063;28;20277;-88
2021/06/27 00:55:26;;;;;;;24.98;18.67;;;16.50;80.60;;;;;;4974572;28;20181;-87
2021/06/27 00:57:53;;;;;;;23.25;19.25;;;16.50;80.50;;;;;;4992006;28;20170;-87
2021/06/27 01:00:25;;;;;;;28.17;18.95;;;16.50;80.50;;;;;;4974488;28;20227;-88
2021/06/27 01:02:52;;;;;;;23.55;18.83;;;16.50;80.50;;;;;;4974504;28;20289;-87
2021/06/27 01:05:21;;;;;;;24.95;18.48;;;16.40;80.40;;;;;;4974396;28;20198;-88
2021/06/27 01:07:47;;;;;;;25.05;19.60;;;16.40;80.30;;;;;;4991820;28;20173;-87
2021/06/27 01:10:13;;;;;;;21.95;19.00;;;16.40;80.20;;;;;;4974407;28;20178;-87
2021/06/27 01:12:39;;;;;;;26.20;19.40;;;16.30;80.10;;;;;;4974165;28;20296;-87
2021/06/27 01:15:08;;;;;;;23.23;18.70;;;16.30;80.10;;;;;;4991756;28;20576;-87
2021/06/27 01:17:34;;;;;;;27.55;19.02;;;16.20;80.20;;;;;;4991609;28;20568;-87
2021/06/27 01:20:00;;;;;;;21.05;16.70;;;16.20;80.30;;;;;;4974187;28;20182;-87
2021/06/27 01:22:26;;;;;;;21.25;17.00;;;16.20;80.40;;;;;;4974167;28;20686;-87
2021/06/27 01:24:52;;;;;;;24.85;19.75;;;16.10;80.20;;;;;;4974085;28;20209;-87
2021/06/27 01:27:19;;;;;;;19.88;17.50;;;16.10;80.20;;;;;;4990811;28;20630;-88
2021/06/27 01:29:45;;;;;;;21.20;16.92;;;16.10;80.10;;;;;;4974098;28;20177;-87
2021/06/27 01:32:12;;;;;;;25.67;19.08;;;16.00;80.00;;;;;;4991377;28;20198;-88
2021/06/27 01:34:38;;;;;;;22.35;17.88;;;16.00;80.50;;;;;;4991360;28;20178;-87
2021/06/27 01:37:05;;;;;;;25.75;19.63;;;15.90;80.70;;;;;;4974040;28;20174;-88
2021/06/27 01:39:34;;;;;;;23.80;18.13;;;15.90;80.80;;;;;;4973893;28;20178;-88
2021/06/27 01:42:00;;;;;;;24.08;18.58;;;15.80;80.70;;;;;;4973855;28;20194;-88
2021/06/27 01:44:25;;;;;;;22.60;17.05;;;15.80;80.60;;;;;;4973839;28;20212;-88
2021/06/27 01:46:54;;;;;;;19.15;16.67;;;15.80;80.60;;;;;;4991516;28;20697;-88
2021/06/27 01:49:20;;;;;;;23.88;17.13;;;15.80;80.50;;;;;;4973919;28;20197;-88
2021/06/27 01:51:45;;;;;;;25.58;18.02;;;15.80;80.50;;;;;;4973747;28;20252;-88
2021/06/27 01:54:11;;;;;;;23.42;16.42;;;15.70;80.30;;;;;;4973818;28;20174;-88
2021/06/27 01:56:37;;;;;;;22.35;18.05;;;15.70;80.30;;;;;;4991223;28;20664;-88
2021/06/27 01:59:04;;;;;;;22.92;16.90;;;15.70;80.20;;;;;;4991198;28;20178;-88
2021/06/27 02:01:37;;;;;;;22.20;18.08;;;15.70;80.30;;;;;;4973724;28;20229;-88
2021/06/27 02:04:07;;;;;;;24.88;18.25;;;15.70;80.30;;;;;;4991053;28;20166;-88
2021/06/27 02:06:39;;;;;;;23.50;18.17;;;15.60;80.20;;;;;;4973651;28;20265;-88
2021/06/27 02:09:08;;;;;;;24.10;17.73;;;15.70;80.50;;;;;;4991085;28;20186;-88
2021/06/27 02:11:34;;;;;;;21.42;16.60;;;15.60;80.40;;;;;;4973390;28;20217;-88
2021/06/27 02:14:00;;;;;;;22.10;18.40;;;15.60;80.30;;;;;;4973589;28;20174;-88
2021/06/27 02:16:27;;;;;;;22.88;18.10;;;15.50;80.30;;;;;;4990871;28;20182;-88
2021/06/27 02:18:53;;;;;;;25.77;18.97;;;15.50;80.40;;;;;;4990851;28;20171;-88
2021/06/27 02:21:22;;;;;;;22.60;17.70;;;15.50;80.40;;;;;;4973397;28;20189;-87
2021/06/27 02:23:49;;;;;;;22.73;17.50;;;15.40;80.50;;;;;;4973444;28;20182;-88
2021/06/27 02:26:16;;;;;;;22.77;17.23;;;15.40;80.50;;;;;;4990701;28;20206;-88
2021/06/27 02:28:42;;;;;;;22.35;18.60;;;15.30;80.50;;;;;;4990712;28;20178;-88
2021/06/27 02:31:08;;;;;;;26.80;19.70;;;15.30;80.70;;;;;;4990674;28;20181;-88
2021/06/27 02:33:34;;;;;;;31.85;20.63;;;15.30;81.90;;;;;;4973354;28;20657;-87
2021/06/27 02:36:01;;;;;;;33.47;20.02;;;;;;;;;;4990700;28;20330;-87
2021/06/27 02:38:26;;;;;;;27.20;20.77;;;15.40;83.10;;;;;;4991044;28;20189;-87
2021/06/27 02:40:54;;;;;;;25.77;20.03;;;15.50;84.00;;;;;;4994010;28;20210;-87
2021/06/27 02:43:20;;;;;;;25.90;18.17;;;15.50;84.30;;;;;;4976513;28;20208;-88
2021/06/27 02:45:46;;;;;;;24.50;19.33;;;15.30;84.10;;;;;;4993887;28;20281;-88
2021/06/27 02:48:12;;;;;;;26.40;18.33;;;15.30;84.10;;;;;;4977016;28;20178;-88
2021/06/27 02:50:39;;;;;;;22.80;17.60;;;15.30;83.90;;;;;;4976629;28;20178;-88
2021/06/27 02:53:06;;;;;;;24.03;17.70;;;15.30;83.60;;;;;;4993813;28;20661;-88
2021/06/27 02:55:32;;;;;;;30.73;17.87;;;15.20;83.20;;;;;;4976472;28;20207;-88
2021/06/27 02:57:57;;;;;;;35.33;18.63;;;15.20;82.80;;;;;;4976402;28;20182;-88
2021/06/27 03:00:23;;;;;;;23.23;17.30;;;15.20;82.60;;;;;;4976388;28;20273;-88
2021/06/27 03:02:49;;;;;;;23.35;19.23;;;15.20;82.30;;;;;;4976296;28;20205;-88
2021/06/27 03:05:16;;;;;;;24.07;20.10;;;;;;;;;;4976255;28;20201;-88
2021/06/27 03:07:42;;;;;;;32.58;20.30;;;15.20;82.40;;;;;;4992488;28;20174;-88
2021/06/27 03:10:12;;;;;;;37.15;23.38;;;15.20;82.50;;;;;;4976205;28;20264;-87
2021/06/27 03:12:39;;;;;;;32.30;21.13;;;15.20;83.70;;;;;;4975915;28;20293;-88
2021/06/27 03:15:06;;;;;;;35.40;22.93;;;15.20;84.00;;;;;;4976152;28;20185;-88
2021/06/27 03:17:32;;;;;;;32.77;22.07;;;15.20;84.70;;;;;;4993444;28;20714;-88
2021/06/27 03:19:57;;;;;;;34.33;20.47;;;15.30;85.20;;;;;;4975968;28;20178;-88
2021/06/27 03:22:23;;;;;;;32.37;22.50;;;15.30;85.30;;;;;;4975972;28;20213;-88
2021/06/27 03:24:49;;;;;;;26.70;18.60;;;15.30;85.20;;;;;;4975906;28;20202;-88
2021/06/27 03:27:14;;;;;;;22.33;18.00;;;15.30;85.30;;;;;;4993618;28;20182;-88
2021/06/27 03:29:40;;;;;;;28.00;18.50;;;15.30;85.20;;;;;;4975935;28;20607;-88
2021/06/27 03:32:06;;;;;;;28.73;18.90;;;15.30;85.00;;;;;;4975885;28;20202;-88
2021/06/27 03:34:32;;;;;;;26.70;19.77;;;15.30;84.80;;;;;;4975823;28;20186;-88
2021/06/27 03:36:58;;;;;;;31.07;20.83;;;15.30;84.70;;;;;;4993229;28;20189;-88
2021/06/27 03:39:23;;;;;;;24.43;20.03;;;15.30;84.50;;;;;;4993138;28;20182;-88
2021/06/27 03:41:55;;;;;;;29.27;20.97;;;15.40;84.40;;;;;;4975754;28;20198;-88
2021/06/27 03:44:22;;;;;;;26.97;19.63;;;15.40;84.60;;;;;;4975669;28;20198;-88
2021/06/27 03:46:48;;;;;;;29.03;20.30;;;15.50;84.80;;;;;;4975619;28;20205;-87
2021/06/27 03:49:14;;;;;;;34.80;20.77;;;15.50;85.30;;;;;;4992658;28;20177;-88
2021/06/27 03:51:40;;;;;;;25.37;19.93;;;15.60;85.60;;;;;;4975334;28;20190;-88
2021/06/27 03:54:06;;;;;;;32.13;19.73;;;15.60;85.60;;;;;;4975490;28;20209;-88
2021/06/27 03:56:32;;;;;;;26.17;19.03;;;15.50;85.60;;;;;;4975529;28;20231;-88
2021/06/27 03:58:58;;;;;;;30.93;20.83;;;15.60;85.60;;;;;;4992813;28;20170;-88
2021/06/27 04:01:23;;;;;;;30.70;20.03;;;15.60;85.60;;;;;;4975423;28;20221;-88
2021/06/27 04:03:49;;;;;;;33.35;21.40;;;15.50;85.40;;;;;;4975473;28;20197;-88
2021/06/27 04:06:15;;;;;;;34.73;21.50;;;15.60;85.40;;;;;;4975255;28;20224;-88
2021/06/27 04:08:41;;;;;;;28.20;19.55;;;15.60;85.60;;;;;;4992749;28;20182;-88
2021/06/27 04:11:07;;;;;;;29.67;19.98;;;15.60;85.60;;;;;;4992739;28;20180;-88
2021/06/27 04:13:35;;;;;;;31.30;20.40;;;15.60;85.80;;;;;;5010349;22;20654;-84
2021/06/27 04:16:03;;;;;;;33.03;21.80;;;15.60;85.90;;;;;;4953890;28;20221;-85
2021/06/27 04:18:30;;;;;;;26.10;19.30;;;15.60;86.10;;;;;;4953856;28;20172;-85
2021/06/27 04:20:57;;;;;;;30.60;20.33;;;15.60;86.30;;;;;;4953891;28;20191;-85
2021/06/27 04:23:23;;;;;;;27.30;20.30;;;15.60;86.50;;;;;;4952604;29;20175;-85
2021/06/27 04:25:49;;;;;;;37.63;21.00;;;15.60;86.60;;;;;;4953718;28;20260;-85
2021/06/27 04:28:15;;;;;;;30.73;21.02;;;15.50;86.90;;;;;;4953721;29;20254;-85
2021/06/27 04:30:41;;;;;;;34.97;20.87;;;15.50;87.10;;;;;;4952551;29;20175;-85
2021/06/27 04:33:08;;;;;;;32.83;20.37;;;15.40;87.50;;;;;;4952469;29;20179;-85
2021/06/27 04:35:36;;;;;;;29.17;20.07;;;15.50;87.60;;;;;;4953570;28;20191;-85
2021/06/27 04:38:04;;;;;;;29.93;18.13;;;15.50;87.60;;;;;;4952480;29;20658;-85
2021/06/27 04:40:30;;;;;;;40.47;21.80;;;15.60;87.50;;;;;;4953559;28;20183;-85
2021/06/27 04:42:55;;;;;;;24.73;18.73;;;15.60;87.20;;;;;;4952298;29;20175;-85
2021/06/27 04:45:22;;;;;;;24.52;18.75;;;15.60;86.80;;;;;;4953299;29;20219;-85
2021/06/27 04:47:47;;;;;;;28.73;18.83;;;15.70;86.60;;;;;;4952228;29;20175;-85
2021/06/27 04:50:13;;;;;;;32.05;18.70;;;15.70;86.40;;;;;;4953350;29;20241;-85
2021/06/27 04:52:39;;;;;;;33.83;19.67;;;15.70;86.20;;;;;;4953397;28;20206;-85
2021/06/27 04:55:06;;;;;;;30.27;19.90;;;15.70;86.20;;;;;;4953251;28;20199;-85
2021/06/27 04:57:33;;;;;;;31.53;20.93;;;15.70;86.90;;;;;;4953571;28;20207;-85
2021/06/27 04:59:59;;;;;;;28.40;20.17;;;15.60;87.40;;;;;;4951979;29;20184;-85
2021/06/27 05:02:25;;;;;;;33.70;20.80;;;15.50;87.80;;;;;;4950994;28;20179;-85
2021/06/27 05:04:51;;;;;;;38.30;22.33;;;15.50;88.20;;;;;;4951780;29;20675;-85
2021/06/27 05:07:16;;;;;;;36.80;21.77;;;15.50;88.50;;;;;;4951924;29;20184;-85
2021/06/27 05:09:42;;;;;;;35.33;21.07;;;15.50;88.70;;;;;;4953077;29;20175;-85
2021/06/27 05:12:08;;;;;;;38.17;21.47;;;15.60;88.80;;;;;;4951770;29;20183;-85
2021/06/27 05:14:34;;;;;;;38.03;22.13;;;15.70;88.60;;;;;;4952923;29;20246;-85
2021/06/27 05:17:00;;;;;;;32.57;20.93;;;15.70;88.50;;;;;;4953007;28;20180;-85
2021/06/27 05:19:26;;;;;;;31.90;20.60;;;15.70;88.60;;;;;;4951732;29;20240;-85
2021/06/27 05:21:52;;;;;;;33.67;22.20;;;15.70;88.50;;;;;;4951745;28;20179;-85
2021/06/27 05:24:20;;;;;;;35.90;22.20;;;15.80;88.60;;;;;;4951552;29;20207;-85
2021/06/27 05:26:46;;;;;;;31.80;22.10;;;15.90;88.60;;;;;;4952856;28;20309;-85
2021/06/27 05:29:12;;;;;;;36.93;22.10;;;15.90;88.60;;;;;;4953098;29;20183;-85
2021/06/27 05:31:38;;;;;;;36.92;22.15;;;16.00;88.80;;;;;;4952762;29;20180;-85
2021/06/27 05:34:04;;;;;;;33.97;23.03;;;16.10;88.80;;;;;;4951572;29;20210;-85
2021/06/27 05:36:36;;;;;;;31.83;22.48;;;16.20;88.90;;;;;;4951489;29;20555;-85
2021/06/27 05:39:12;;;;;;;34.00;22.55;;;16.30;89.00;;;;;;4952647;28;20152;-85
2021/06/27 05:41:38;;;;;;;29.75;20.30;;;16.40;88.70;;;;;;4952699;28;20168;-85
2021/06/27 05:44:05;;;;;;;30.77;21.98;;;16.50;88.40;;;;;;4951291;29;20206;-85
2021/06/27 05:46:32;;;;;;;28.65;19.67;;;16.60;87.80;;;;;;4952825;28;20257;-85
2021/06/27 05:48:57;;;;;;;31.90;20.90;;;16.60;87.90;;;;;;4951357;29;20183;-85
2021/06/27 05:51:24;;;;;;;33.22;20.92;;;16.60;87.80;;;;;;4952553;28;20615;-85
2021/06/27 05:53:50;;;;;;;30.15;20.33;;;16.60;87.90;;;;;;4952482;29;20183;-85
2021/06/27 05:56:20;;;;;;;31.15;20.73;;;16.70;88.00;;;;;;4951263;29;20229;-85
2021/06/27 05:58:46;;;;;;;29.10;19.85;;;16.80;87.70;;;;;;4951201;29;20183;-85
2021/06/27 06:01:15;;;;;;;34.70;21.95;;;16.80;87.50;;;;;;4952420;28;20248;-85
2021/06/27 06:03:41;;;;;;;32.97;21.20;;;16.90;87.30;;;;;;4950961;29;20233;-85
2021/06/27 06:06:09;;;;;;;32.03;21.80;;;17.00;87.40;;;;;;4952174;28;20610;-85
2021/06/27 06:08:35;;;;;;;32.28;19.70;;;17.10;87.20;;;;;;4951020;29;20168;-86
2021/06/27 06:11:00;;;;;;;28.52;20.80;;;17.30;86.60;;;;;;4950949;29;20671;-85
2021/06/27 06:13:26;;;;;;;28.85;20.38;;;17.30;86.30;;;;;;4952233;28;20179;-85
2021/06/27 06:15:52;;;;;;;29.25;20.90;;;17.30;85.80;;;;;;4955698;29;20195;-85
2021/06/27 06:18:17;;;;;;;28.58;20.25;;;17.30;85.90;;;;;;4954456;29;20187;-85
2021/06/27 06:20:43;;;;;;;30.30;20.75;;;17.30;85.90;;;;;;4955668;29;20179;-85
2021/06/27 06:23:09;;;;;;;29.02;20.75;;;17.30;86.30;;;;;;4954404;29;20255;-85
2021/06/27 06:25:35;;;;;;;28.75;20.40;;;17.50;86.60;;;;;;4954166;29;20210;-85
2021/06/27 06:28:00;;;;;;;29.20;20.83;;;17.70;85.90;;;;;;4955468;29;20203;-85
2021/06/27 06:30:26;;;;;;;26.33;19.88;;;17.70;85.20;;;;;;4955736;28;20175;-85
2021/06/27 06:32:52;;;;;;;29.77;20.33;;;17.70;84.90;;;;;;4955402;29;20632;-85
2021/06/27 06:35:18;;;;;;;31.00;20.92;;;17.70;84.50;;;;;;4954436;29;20210;-85
2021/06/27 06:37:43;;;;;;;29.38;19.55;;;17.70;84.90;;;;;;4954162;29;20553;-85
2021/06/27 06:40:10;;;;;;;27.42;21.45;;;17.80;84.70;;;;;;4955248;29;20191;-85
2021/06/27 06:42:36;;;;;;;28.95;20.45;;;17.80;84.80;;;;;;4954013;28;20179;-85
2021/06/27 06:45:02;;;;;;;28.23;20.70;;;17.80;84.70;;;;;;4953752;29;20679;-85
2021/06/27 06:47:28;;;;;;;30.50;20.23;;;18.00;84.80;;;;;;4953834;29;20180;-85
2021/06/27 06:49:53;;;;;;;29.88;20.60;;;18.10;84.70;;;;;;4953810;29;20186;-85
2021/06/27 06:52:19;;;;;;;28.13;20.73;;;18.20;84.40;;;;;;4953923;29;20172;-86
2021/06/27 06:54:45;;;;;;;30.77;20.25;;;18.30;84.10;;;;;;4954089;29;20200;-85
2021/06/27 06:57:10;;;;;;;28.92;19.92;;;18.40;83.30;;;;;;4953951;29;20270;-86
2021/06/27 06:59:36;;;;;;;23.75;18.52;;;18.60;83.20;;;;;;4953656;29;20187;-86
2021/06/27 07:02:02;;;;;;;27.23;20.58;;;18.70;82.50;;;;;;4955127;29;20176;-85
2021/06/27 07:04:27;;;;;;;26.45;20.13;;;18.70;82.10;;;;;;4953465;29;20207;-85
2021/06/27 07:06:53;;;;;;;26.65;19.90;;;18.80;81.30;;;;;;4953535;29;20563;-86
2021/06/27 07:09:19;;;;;;;27.65;19.08;;;18.90;81.00;;;;;;4954750;29;20175;-86
2021/06/27 07:11:45;;;;;;;30.40;19.88;;;19.10;80.70;;;;;;4954681;29;20171;-86
2021/06/27 07:14:11;;;;;;;27.83;18.98;;;19.20;80.80;;;;;;4953394;29;20246;-86
2021/06/27 07:16:36;;;;;;;24.00;18.70;;;19.30;80.90;;;;;;4953406;29;20180;-85
2021/06/27 07:19:03;;;;;;;22.38;18.67;;;19.40;79.80;;;;;;4953332;29;20233;-86
2021/06/27 07:21:29;;;;;;;28.70;19.80;;;19.50;78.80;;;;;;4954571;28;20176;-86
2021/06/27 07:23:55;;;;;;;25.75;19.85;;;19.50;79.00;;;;;;4952984;28;20202;-86
2021/06/27 07:26:22;;;;;;;25.25;19.95;;;19.50;78.70;;;;;;4952567;29;20203;-86
2021/06/27 07:28:47;;;;;;;27.50;19.10;;;19.70;78.10;;;;;;4953220;28;20187;-86
2021/06/27 07:31:13;;;;;;;27.73;19.40;;;19.70;78.60;;;;;;4954605;29;20217;-86
2021/06/27 07:33:38;;;;;;;29.15;19.65;;;19.70;78.90;;;;;;4954361;29;20278;-86
2021/06/27 07:36:05;;;;;;;25.88;19.80;;;19.70;79.10;;;;;;4953132;29;20218;-86
2021/06/27 07:38:31;;;;;;;24.85;18.40;;;19.80;78.40;;;;;;4954410;28;20180;-86
2021/06/27 07:40:58;;;;;;;22.73;17.83;;;19.90;78.40;;;;;;4954320;29;20224;-86
2021/06/27 07:43:24;;;;;;;25.60;19.17;;;20.10;79.20;;;;;;4954252;28;20596;-86
2021/06/27 07:45:49;;;;;;;21.75;17.75;;;20.30;78.10;;;;;;4954238;28;20282;-86
2021/06/27 07:48:15;;;;;;;25.02;18.88;;;20.40;77.40;;;;;;4953131;29;20171;-86
2021/06/27 07:50:41;;;;;;;23.25;18.50;;;20.40;76.80;;;;;;4953119;29;20555;-86
2021/06/27 07:53:07;;;;;;;24.02;18.20;;;20.70;76.40;;;;;;4954535;29;20167;-86
2021/06/27 07:55:33;;;;;;;21.10;16.95;;;20.80;76.30;;;;;;4952962;29;20210;-86
2021/06/27 07:57:59;;;;;;;25.48;18.35;;;20.90;76.60;;;;;;4954493;28;20263;-85
2021/06/27 08:00:25;;;;;;;20.55;17.40;;;20.90;75.50;;;;;;4952942;29;20270;-85
2021/06/27 08:02:50;;;;;;;23.98;17.65;;;20.90;75.10;;;;;;4954166;28;20176;-85
2021/06/27 08:05:16;;;;;;;22.60;15.73;;;20.90;74.30;;;;;;4952678;28;20212;-84
2021/06/27 08:07:42;;;;;;;19.70;17.33;;;21.10;75.00;;;;;;4954702;28;20175;-85
2021/06/27 08:10:09;;;;;;;21.30;16.65;;;21.00;74.10;;;;;;4956875;29;20179;-85
2021/06/27 08:12:36;;;;;;;22.63;17.05;;;21.10;74.60;;;;;;4952804;29;20175;-84
2021/06/27 08:15:03;;;;;;;21.08;16.38;;;21.30;73.90;;;;;;4954406;29;20686;-84
2021/06/27 08:17:28;;;;;;;19.42;17.13;;;21.40;74.00;;;;;;4954243;28;20160;-84
2021/06/27 08:19:54;;;;;;;19.77;16.08;;;21.50;72.90;;;;;;4953000;28;20678;-84
2021/06/27 08:22:20;;;;;;;19.40;15.90;;;21.60;73.80;;;;;;4954736;29;20179;-84
2021/06/27 08:24:46;;;;;;;18.45;15.73;;;21.60;72.70;;;;;;4954336;28;20276;-85
2021/06/27 08:27:12;;;;;;;17.85;14.77;;;21.80;71.10;;;;;;4955628;29;20168;-85
2021/06/27 08:29:38;;;;;;;19.85;16.95;;;21.90;71.60;;;;;;4956010;28;20182;-85
2021/06/27 08:32:04;;;;;;;18.92;15.73;;;22.00;71.30;;;;;;4954694;29;20553;-85
2021/06/27 08:34:30;;;;;;;21.30;15.80;;;21.90;71.70;;;;;;4952833;28;20226;-84
2021/06/27 08:36:56;;;;;;;18.40;15.48;;;22.00;71.60;;;;;;4953132;29;20659;-85
2021/06/27 08:39:22;;;;;;;17.52;14.65;;;22.00;72.50;;;;;;4953023;29;20182;-85
2021/06/27 08:41:48;;;;;;;16.60;14.82;;;21.90;71.80;;;;;;4952652;29;20187;-85
2021/06/27 08:44:14;;;;;;;18.58;15.55;;;22.10;71.60;;;;;;4952474;29;20316;-86
2021/06/27 08:46:42;;;;;;;22.02;17.25;;;22.20;70.80;;;;;;4954124;29;20181;-85
2021/06/27 08:49:12;;;;;;;19.67;15.18;;;22.00;70.40;;;;;;4952522;29;20556;-85
2021/06/27 08:51:41;;;;;;;24.10;16.42;;;22.50;71.20;;;;;;4954428;28;20182;-85
2021/06/27 08:54:08;;;;;;;20.02;16.33;;;22.20;71.70;;;;;;4953431;29;20207;-85
2021/06/27 08:56:35;;;;;;;22.02;16.85;;;22.00;72.20;;;;;;4953518;28;20708;-85
2021/06/27 08:59:01;;;;;;;20.38;15.48;;;21.90;71.80;;;;;;4953271;29;20233;-85
2021/06/27 09:01:29;;;;;;;17.90;14.55;;;22.10;73.10;;;;;;4954585;28;20518;-85
2021/06/27 09:03:57;;;;;;;20.08;15.32;;;22.70;69.90;;;;;;4954257;28;20565;-86
2021/06/27 09:06:45;;;;;;;17.00;14.48;;;22.80;69.20;;;;;;4953471;28;20274;-85
2021/06/27 09:09:18;;;;;;;18.73;14.95;;;22.90;68.30;;;;;;4952931;29;20258;-86
2021/06/27 09:12:07;;;;;;;17.23;14.82;;;22.70;69.40;;;;;;4952153;29;20259;-86
2021/06/27 09:14:35;;;;;;;17.83;14.98;;;22.60;69.10;;;;;;4952925;28;20218;-85
2021/06/27 09:17:11;;;;;;;18.52;15.05;;;22.30;71.00;;;;;;4951768;28;20222;-85
2021/06/27 09:19:52;;;;;;;15.00;13.40;;;22.30;70.90;;;;;;4953077;29;20173;-85
2021/06/27 09:22:23;;;;;;;19.88;14.10;;;22.70;69.10;;;;;;4953116;29;20179;-85
2021/06/27 09:24:50;;;;;;;21.65;14.75;;;22.70;68.50;;;;;;4951589;29;20211;-85
2021/06/27 09:27:20;;;;;;;22.33;11.88;;;22.90;69.20;;;;;;4951622;29;20187;-85
2021/06/27 09:29:46;;;;;;;14.32;12.77;;;23.10;66.60;;;;;;4951609;29;20195;-85
2021/06/27 09:32:19;;;;;;;14.95;12.68;;;23.50;65.80;;;;;;4951470;29;20643;-85
2021/06/27 09:34:46;;;;;;;16.17;12.70;;;23.40;67.00;;;;;;4952753;28;20203;-85
2021/06/27 09:37:13;;;;;;;14.30;11.55;;;23.60;66.80;;;;;;4953030;28;20210;-85
2021/06/27 09:40:01;;;;;;;17.02;13.00;;;24.00;64.50;;;;;;4951343;29;20211;-85
2021/06/27 09:42:28;;;;;;;16.08;12.40;;;23.80;64.70;;;;;;4952419;28;20695;-85
2021/06/27 09:45:03;;;;;;;17.30;15.00;;;23.60;67.20;;;;;;4952268;28;20301;-85
2021/06/27 09:47:28;;;;;;;18.70;14.95;;;23.40;65.50;;;;;;4950652;29;20176;-85
2021/06/27 09:49:54;;;;;;;15.88;13.93;;;23.30;67.30;;;;;;4952519;29;20172;-85
2021/06/27 09:52:37;;;;;;;17.58;13.75;;;23.40;66.90;;;;;;4952443;28;20168;-85
2021/06/27 09:55:11;;;;;;;17.95;13.27;;;24.00;64.80;;;;;;4951137;29;20199;-85
2021/06/27 09:57:37;;;;;;;18.02;13.10;;;23.90;65.00;;;;;;4951299;29;20548;-85
2021/06/27 10:00:23;;;;;;;16.13;12.68;;;23.80;64.00;;;;;;4951059;29;20519;-85
2021/06/27 10:03:02;;;;;;;16.25;13.52;;;23.70;64.00;;;;;;4952381;29;20305;-85
2021/06/27 10:05:28;;;;;;;14.07;12.23;;;23.70;64.50;;;;;;4950910;28;20218;-85
2021/06/27 10:07:55;;;;;;;13.95;10.98;;;24.00;66.10;;;;;;4951046;29;20179;-85
2021/06/27 10:10:21;;;;;;;11.15;9.82;;;24.60;61.50;;;;;;4951043;29;20184;-85
2021/06/27 10:12:47;;;;;;;11.43;9.43;;;24.70;61.10;;;;;;4951021;29;20650;-85
2021/06/27 10:15:15;;;;;;;11.07;9.93;;;25.10;59.40;;;;;;4950689;29;20759;-85
2021/06/27 10:17:42;;;;;;;11.85;8.63;;;25.20;59.50;;;;;;4950889;29;20200;-85
2021/06/27 10:20:13;;;;;;;11.88;9.48;;;25.40;59.20;;;;;;4950868;29;20596;-86
2021/06/27 10:22:39;;;;;;;10.60;9.48;;;25.20;58.50;;;;;;4950774;29;20174;-85
2021/06/27 10:25:08;;;;;;;10.55;9.43;;;24.70;58.70;;;;;;4951801;28;20207;-86
2021/06/27 10:27:34;;;;;;;11.75;9.68;;;25.20;58.80;;;;;;4950691;29;20190;-86
2021/06/27 10:30:02;;;;;;;10.52;7.65;;;25.20;59.00;;;;;;4951849;29;20285;-86
2021/06/27 10:32:28;;;;;;;8.73;6.38;;;25.30;59.10;;;;;;4951828;28;20178;-86
2021/06/27 10:34:55;;;;;;;11.43;7.95;;;25.00;59.40;;;;;;4951751;29;20274;-87
2021/06/27 10:37:34;;;;;;;8.70;7.80;;;25.00;58.30;;;;;;4950684;29;20179;-87
2021/06/27 10:40:04;;;;;;;8.18;7.30;;;25.00;59.90;;;;;;4950657;29;20171;-87
2021/06/27 10:42:48;;;;;;;9.02;7.43;;;25.30;57.20;;;;;;4951997;28;20663;-87
2021/06/27 10:45:46;;;;;;;7.82;7.03;;;25.30;58.10;;;;;;4951569;29;20239;-87
2021/06/27 10:48:34;;;;;;;10.05;7.05;;;25.30;59.20;;;;;;4951569;28;20190;-87
2021/06/27 10:51:05;;;;;;;8.05;7.15;;;25.70;59.60;;;;;;4951647;29;20172;-87
2021/06/27 10:54:09;;;;;;;9.38;7.05;;;25.80;58.00;;;;;;4951856;28;20178;-87
2021/06/27 10:57:07;;;;;;;6.93;6.03;;;26.00;56.20;;;;;;4950325;29;20182;-87
2021/06/27 10:59:39;;;;;;;9.23;7.20;;;25.90;57.40;;;;;;4946643;28;20199;-87
2021/06/27 11:02:13;;;;;;;7.63;6.78;;;25.50;55.80;;;;;;4954829;28;20180;-87
2021/06/27 11:04:39;;;;;;;9.07;7.68;;;25.30;57.20;;;;;;4953435;29;20211;-87
2021/06/27 11:07:05;;;;;;;12.35;7.72;;;25.70;56.90;;;;;;4954829;28;20671;-87
2021/06/27 11:09:30;;;;;;;10.05;8.55;;;25.00;57.90;;;;;;4955017;29;20179;-87
2021/06/27 11:11:58;;;;;;;10.77;7.70;;;24.60;59.10;;;;;;4954689;29;20648;-88
2021/06/27 11:14:24;;;;;;;8.15;6.75;;;24.30;61.00;;;;;;4953358;29;20703;-88
2021/06/27 11:17:05;;;;;;;9.98;8.32;;;24.60;61.10;;;;;;4954722;28;20180;-88
2021/06/27 11:19:36;;;;;;;10.07;8.25;;;24.40;60.50;;;;;;4953420;28;20176;-87
2021/06/27 11:22:13;;;;;;;10.23;7.65;;;24.60;61.10;;;;;;4954677;28;20182;-88
2021/06/27 11:24:38;;;;;;;9.18;7.68;;;25.20;60.90;;;;;;4953225;29;20252;-88
2021/06/27 11:27:04;;;;;;;8.48;7.22;;;25.80;59.40;;;;;;4954808;29;20176;-88
2021/06/27 11:29:30;;;;;;;8.73;7.38;;;25.80;58.70;;;;;;4953250;28;20175;-88
2021/06/27 11:32:15;;;;;;;10.02;8.05;;;26.00;57.90;;;;;;4953346;29;20178;-88
2021/06/27 11:34:57;;;;;;;9.00;5.88;;;25.90;56.40;;;;;;4954290;28;20746;-88
2021/06/27 11:37:23;;;;;;;6.78;5.63;;;25.40;57.50;;;;;;4954347;28;20179;-88
2021/06/27 11:39:49;;;;;;;7.53;6.20;;;25.10;57.80;;;;;;4954338;29;20178;-88
2021/06/27 11:42:26;;;;;;;7.63;6.30;;;25.00;58.90;;;;;;4954286;29;20183;-88
2021/06/27 11:45:04;;;;;;;6.82;6.13;;;24.80;58.40;;;;;;4954234;28;20230;-88
2021/06/27 11:47:31;;;;;;;7.90;7.07;;;25.00;57.90;;;;;;4953041;29;20229;-88
2021/06/27 11:49:57;;;;;;;9.13;6.47;;;25.00;60.00;;;;;;4954309;28;20206;-88
2021/06/27 11:52:23;;;;;;;6.03;5.43;;;25.40;59.40;;;;;;4952921;28;20212;-88
2021/06/27 11:54:49;;;;;;;6.15;5.07;;;25.70;57.60;;;;;;4952850;29;20637;-88
2021/06/27 11:57:15;;;;;;;7.20;5.97;;;25.90;55.10;;;;;;4954177;28;20270;-88
2021/06/27 11:59:53;;;;;;;6.53;5.85;;;25.80;57.10;;;;;;4953014;28;20717;-88
2021/06/27 12:02:22;;;;;;;6.15;5.35;;;25.80;56.10;;;;;;4952985;29;20172;-88
2021/06/27 12:04:50;;;;;;;7.93;6.97;;;26.20;55.50;;;;;;4952698;29;20219;-88
2021/06/27 12:07:25;;;;;;;10.93;9.10;;;26.00;55.20;;;;;;4953964;28;20176;-88
2021/06/27 12:09:50;;;;;;;8.88;7.10;;;25.70;59.00;;;;;;4952737;29;20179;-88
2021/06/27 12:12:52;;;;;;;9.30;8.35;;;26.20;58.40;;;;;;4952157;28;20198;-88
2021/06/27 12:15:17;;;;;;;8.02;7.03;;;26.20;58.10;;;;;;4953897;28;20238;-88
2021/06/27 12:17:46;;;;;;;6.82;6.10;;;26.00;57.80;;;;;;4953805;29;20176;-88
2021/06/27 12:20:13;;;;;;;8.68;6.22;;;26.60;57.30;;;;;;4952600;29;20181;-88
2021/06/27 12:22:56;;;;;;;9.20;6.50;;;26.70;57.70;;;;;;4952590;29;20175;-88
2021/06/27 12:25:27;;;;;;;6.93;6.32;;;27.10;55.20;;;;;;4937276;28;20620;-87
2021/06/27 12:27:54;;;;;;;8.93;6.10;;;27.00;54.00;;;;;;4952462;29;20233;-88
2021/06/27 12:30:38;;;;;;;9.35;6.93;;;27.20;54.50;;;;;;4952605;29;20176;-88
2021/06/27 12:33:09;;;;;;;6.10;5.50;;;27.70;52.90;;;;;;4952534;29;20168;-88
2021/06/27 12:35:39;;;;;;;7.40;6.70;;;27.60;50.00;;;;;;4952273;29;20329;-88